createdAt,value
2023-03-01T00:03:12.035Z,101666.49
2023-03-01T00:06:47.162Z,101669.42
2023-03-01T00:10:44.209Z,101661.20
2023-03-01T00:14:42.533Z,101661.31
2023-03-01T00:18:40.370Z,101659.21
2023-03-01T00:22:38.186Z,101654.57
2023-03-01T00:26:56.218Z,101644.42
2023-03-01T00:34:42.526Z,101639.14
2023-03-01T00:38:46.143Z,101641.15
2023-03-01T00:42:41.372Z,101649.34
2023-03-01T00:46:36.988Z,101650.87
2023-03-01T00:50:32.402Z,101648.79
2023-03-01T00:54:31.155Z,101642.02
2023-03-01T00:58:30.873Z,101645.73
2023-03-01T01:02:45.877Z,101641.08
2023-03-01T01:06:18.778Z,101631.00
2023-03-01T01:15:44.594Z,101621.11
2023-03-01T01:19:42.896Z,101619.58
2023-03-01T01:23:40.391Z,101612.61
2023-03-01T01:27:36.269Z,101607.87
2023-03-01T01:37:09.002Z,101601.84
2023-03-01T01:41:07.825Z,101603.13
2023-03-01T01:45:30.277Z,101603.73
2023-03-01T01:49:37.115Z,101597.83
2023-03-01T01:54:01.282Z,101594.59
2023-03-01T01:58:02.938Z,101594.24
2023-03-01T02:02:03.051Z,101593.39
2023-03-01T02:06:07.760Z,101587.88
2023-03-01T02:10:07.517Z,101575.37
2023-03-01T02:14:08.665Z,101580.98
2023-03-01T02:17:45.306Z,101581.84
2023-03-01T02:22:13.840Z,101576.80
2023-03-01T02:26:33.287Z,101571.15
2023-03-01T02:30:32.992Z,101570.00
2023-03-01T02:34:32.492Z,101565.55
2023-03-01T02:38:29.278Z,101554.57
2023-03-01T02:42:33.153Z,101554.66
2023-03-01T02:46:45.366Z,101553.40
2023-03-01T02:50:48.116Z,101563.15
2023-03-01T02:55:05.315Z,101556.08
2023-03-01T02:59:01.775Z,101547.44
2023-03-01T03:01:48.868Z,101534.20
2023-03-01T03:04:35.609Z,101539.36
2023-03-01T03:07:21.974Z,101539.42
2023-03-01T03:10:15.161Z,101534.44
2023-03-01T03:13:05.351Z,101530.45
2023-03-01T03:16:00.642Z,101523.37
2023-03-01T03:18:48.312Z,101516.29
2023-03-01T03:21:36.328Z,101514.66
2023-03-01T03:24:23.535Z,101516.98
2023-03-01T03:27:10.054Z,101512.17
2023-03-01T03:30:13.391Z,101507.92
2023-03-01T03:34:04.815Z,101508.33
2023-03-01T03:37:42.850Z,101511.65
2023-03-01T03:47:41.044Z,101522.36
2023-03-01T04:01:42.404Z,101504.13
2023-03-01T04:04:42.104Z,101486.78
2023-03-01T04:08:37.907Z,101482.13
2023-03-01T04:12:38.293Z,101480.08
2023-03-01T04:16:15.050Z,101484.74
2023-03-01T04:19:03.903Z,101496.81
2023-03-01T04:22:10.361Z,101493.83
2023-03-01T04:26:05.755Z,101489.77
2023-03-01T04:30:19.989Z,101484.77
2023-03-01T04:33:46.336Z,101475.63
2023-03-01T04:38:00.735Z,101472.92
2023-03-01T04:41:25.602Z,101469.10
2023-03-01T04:45:20.796Z,101461.38
2023-03-01T04:49:22.316Z,101458.60
2023-03-01T04:53:13.040Z,101455.34
2023-03-01T04:56:33.142Z,101455.30
2023-03-01T04:59:24.531Z,101457.08
2023-03-01T05:02:11.098Z,101458.77
2023-03-01T05:04:58.692Z,101455.44
2023-03-01T05:07:45.153Z,101454.14
2023-03-01T05:10:33.773Z,101459.08
2023-03-01T05:13:22.091Z,101467.10
2023-03-01T05:16:12.661Z,101471.89
2023-03-01T05:18:59.929Z,101472.77
2023-03-01T05:22:05.013Z,101471.39
2023-03-01T05:24:51.681Z,101470.52
2023-03-01T05:27:38.454Z,101471.88
2023-03-01T05:30:25.167Z,101481.71
2023-03-01T05:33:14.519Z,101488.44
2023-03-01T05:36:01.872Z,101494.45
2023-03-01T05:38:48.400Z,101499.25
2023-03-01T05:41:35.180Z,101501.29
2023-03-01T05:44:23.156Z,101498.13
2023-03-01T05:47:10.007Z,101498.14
2023-03-01T05:49:56.748Z,101504.39
2023-03-01T05:52:52.222Z,101504.44
2023-03-01T05:55:38.955Z,101507.31
2023-03-01T05:58:28.360Z,101508.57
2023-03-01T06:01:14.845Z,101506.04
2023-03-01T06:04:02.486Z,101503.13
2023-03-01T06:06:49.826Z,101502.61
2023-03-01T06:09:53.480Z,101498.53
2023-03-01T06:12:45.441Z,101499.18
2023-03-01T06:15:32.159Z,101495.81
2023-03-01T06:18:19.382Z,101497.73
2023-03-01T06:21:08.093Z,101492.92
2023-03-01T06:23:57.368Z,101494.13
2023-03-01T06:26:44.635Z,101494.96
2023-03-01T06:29:32.660Z,101498.59
2023-03-01T06:32:20.629Z,101499.48
2023-03-01T06:35:07.875Z,101502.95
2023-03-01T06:37:54.392Z,101502.14
2023-03-01T06:40:43.022Z,101500.61
2023-03-01T06:43:29.312Z,101499.63
2023-03-01T06:46:16.334Z,101498.41
2023-03-01T06:49:08.800Z,101498.04
2023-03-01T06:56:17.672Z,101500.39
2023-03-01T06:59:04.512Z,101504.66
2023-03-01T07:01:51.811Z,101505.33
2023-03-01T07:04:38.297Z,101510.17
2023-03-01T07:07:25.223Z,101509.58
2023-03-01T07:14:34.630Z,101504.67
2023-03-01T07:17:21.409Z,101507.16
2023-03-01T07:24:30.848Z,101493.09
2023-03-01T07:30:12.629Z,101491.44
2023-03-01T07:33:30.015Z,101487.68
2023-03-01T07:37:28.163Z,101487.41
2023-03-01T07:41:23.681Z,101489.15
2023-03-01T07:45:33.062Z,101491.84
2023-03-01T07:48:19.725Z,101488.66
2023-03-01T07:52:01.301Z,101492.77
2023-03-01T07:55:02.392Z,101495.23
2023-03-01T07:57:51.485Z,101493.35
2023-03-01T08:01:05.310Z,101495.66
2023-03-01T08:04:41.078Z,101494.52
2023-03-01T08:19:28.150Z,101506.85
2023-03-01T09:00:51.595Z,101504.92
2023-03-01T09:25:10.499Z,101490.73
2023-03-01T09:27:58.717Z,101486.23
2023-03-01T09:30:49.212Z,101482.79
2023-03-01T09:33:36.043Z,101478.84
2023-03-01T09:41:36.774Z,101475.91
2023-03-01T09:55:15.594Z,101471.82
2023-03-01T10:08:48.787Z,101455.56
2023-03-01T10:11:45.397Z,101448.73
2023-03-01T10:15:09.705Z,101443.98
2023-03-01T10:18:08.375Z,101434.33
2023-03-01T10:22:29.305Z,101438.30
2023-03-01T10:26:40.137Z,101437.36
2023-03-01T10:30:59.505Z,101437.02
2023-03-01T10:34:24.226Z,101436.64
2023-03-01T10:38:12.681Z,101432.01
2023-03-01T10:46:38.706Z,101434.04
2023-03-01T10:49:27.338Z,101422.59
2023-03-01T10:52:23.911Z,101424.23
2023-03-01T10:55:14.064Z,101427.68
2023-03-01T10:58:13.273Z,101430.02
2023-03-01T11:03:39.902Z,101422.42
2023-03-01T11:07:12.392Z,101417.09
2023-03-01T11:11:13.344Z,101419.36
2023-03-01T11:25:09.943Z,101409.72
2023-03-01T11:28:01.895Z,101402.90
2023-03-01T11:34:12.206Z,101397.24
2023-03-01T11:37:02.355Z,101396.09
2023-03-01T11:39:55.615Z,101398.08
2023-03-01T11:42:56.090Z,101399.45
2023-03-01T11:46:02.309Z,101398.02
2023-03-01T11:49:00.554Z,101395.27
2023-03-01T11:52:04.678Z,101397.61
2023-03-01T11:55:18.162Z,101392.91
2023-03-01T11:58:05.580Z,101399.31
2023-03-01T12:01:07.526Z,101395.70
2023-03-01T12:04:04.939Z,101394.83
2023-03-01T12:06:58.483Z,101397.56
2023-03-01T12:10:25.935Z,101393.86
2023-03-01T12:13:17.939Z,101396.55
2023-03-01T12:16:37.462Z,101395.51
2023-03-01T12:20:01.026Z,101395.18
2023-03-01T12:22:55.120Z,101399.20
2023-03-01T12:26:01.228Z,101393.41
2023-03-01T12:29:14.418Z,101384.48
2023-03-01T12:32:19.283Z,101382.84
2023-03-01T12:35:30.870Z,101379.85
2023-03-01T12:38:22.704Z,101376.20
2023-03-01T12:41:33.994Z,101377.02
2023-03-01T12:44:44.974Z,101376.03
2023-03-01T12:47:59.099Z,101375.19
2023-03-01T12:50:53.062Z,101376.70
2023-03-01T12:53:43.438Z,101367.26
2023-03-01T12:56:32.614Z,101366.11
2023-03-01T12:59:32.068Z,101363.29
2023-03-01T13:02:28.752Z,101357.13
2023-03-01T13:05:25.831Z,101351.15
2023-03-01T13:09:04.337Z,101350.14
2023-03-01T13:11:55.760Z,101354.80
2023-03-01T13:15:10.720Z,101360.00
2023-03-01T13:18:25.863Z,101353.15
2023-03-01T13:21:32.267Z,101348.45
2023-03-01T13:24:49.777Z,101346.27
2023-03-01T13:27:36.408Z,101341.20
2023-03-01T13:30:35.471Z,101337.22
2023-03-01T13:33:31.332Z,101335.45
2023-03-01T13:36:30.814Z,101331.61
2023-03-01T13:39:40.608Z,101332.52
2023-03-01T13:42:38.271Z,101328.98
2023-03-01T13:45:35.105Z,101335.83
2023-03-01T13:48:35.592Z,101334.52
2023-03-01T13:51:36.228Z,101330.36
2023-03-01T13:54:35.232Z,101328.23
2023-03-01T13:57:26.382Z,101322.14
2023-03-01T14:00:35.199Z,101321.83
2023-03-01T14:03:21.069Z,101314.15
2023-03-01T14:06:15.314Z,101314.96
2023-03-01T14:09:34.553Z,101315.79
2023-03-01T14:12:33.204Z,101316.40
2023-03-01T14:15:36.382Z,101323.97
2023-03-01T14:18:30.417Z,101319.30
2023-03-01T14:21:16.364Z,101324.13
2023-03-01T14:24:02.653Z,101316.88
2023-03-01T14:26:50.136Z,101312.45
2023-03-01T14:42:10.569Z,101303.52
2023-03-01T14:45:21.536Z,101299.13
2023-03-01T14:49:03.032Z,101293.08
2023-03-01T14:53:06.467Z,101290.36
2023-03-01T14:56:48.218Z,101287.66
2023-03-01T15:00:53.521Z,101280.63
2023-03-01T15:04:15.878Z,101275.80
2023-03-01T15:07:59.384Z,101273.44
2023-03-01T15:11:14.997Z,101269.32
2023-03-01T15:16:02.209Z,101269.05
2023-03-01T15:19:06.109Z,101262.40
2023-03-01T15:22:49.777Z,101259.75
2023-03-01T15:26:30.526Z,101248.80
2023-03-01T15:55:34.702Z,101240.55
2023-03-01T15:58:31.458Z,101233.70
2023-03-01T16:13:18.086Z,101229.23
2023-03-01T16:45:36.411Z,101230.04
2023-03-01T17:40:46.308Z,101259.17
2023-03-01T17:43:33.821Z,101253.95
2023-03-01T17:46:19.926Z,101248.89
2023-03-01T17:49:08.967Z,101247.19
2023-03-01T17:51:58.262Z,101241.70
2023-03-01T17:55:02.876Z,101231.55
2023-03-01T18:36:36.075Z,101222.27
2023-03-01T18:50:06.328Z,101218.66
2023-03-01T19:18:20.474Z,101231.58
2023-03-01T19:22:04.821Z,101235.66
2023-03-01T19:35:31.587Z,101247.52
2023-03-01T19:38:20.006Z,101249.05
2023-03-01T19:41:34.703Z,101250.79
2023-03-01T19:44:25.633Z,101250.88
2023-03-01T19:47:13.095Z,101250.73
2023-03-01T19:50:00.186Z,101249.67
2023-03-01T19:52:48.403Z,101251.89
2023-03-01T19:55:37.765Z,101252.39
2023-03-01T19:58:41.348Z,101252.53
2023-03-01T20:01:32.192Z,101252.30
2023-03-01T20:04:23.967Z,101256.20
2023-03-01T20:07:11.538Z,101260.19
2023-03-01T20:10:00.264Z,101262.56
2023-03-01T20:12:47.323Z,101257.36
2023-03-01T20:15:37.731Z,101263.26
2023-03-01T20:18:25.420Z,101263.70
2023-03-01T20:21:23.483Z,101264.75
2023-03-01T20:24:12.807Z,101266.89
2023-03-01T20:27:01.662Z,101267.02
2023-03-01T20:29:48.759Z,101270.99
2023-03-01T20:32:35.915Z,101274.11
2023-03-01T20:35:23.684Z,101269.96
2023-03-01T20:38:11.441Z,101269.56
2023-03-01T20:41:03.934Z,101269.96
2023-03-01T20:43:58.761Z,101268.70
2023-03-01T20:46:45.954Z,101265.09
2023-03-01T20:49:33.695Z,101263.14
2023-03-01T20:52:25.757Z,101264.16
2023-03-01T20:55:12.906Z,101261.97
2023-03-01T20:57:59.723Z,101262.24
2023-03-01T21:00:46.357Z,101266.49
2023-03-01T21:05:07.704Z,101255.33
2023-03-01T21:09:10.499Z,101258.71
2023-03-01T21:11:58.253Z,101265.14
2023-03-01T21:14:47.412Z,101260.77
2023-03-01T21:17:37.362Z,101257.45
2023-03-01T21:20:25.465Z,101256.63
2023-03-01T21:23:13.817Z,101259.17
2023-03-01T21:26:04.620Z,101253.27
2023-03-01T21:28:55.649Z,101246.83
2023-03-01T21:31:42.409Z,101241.98
2023-03-01T21:34:42.653Z,101240.55
2023-03-01T21:37:29.594Z,101238.11
2023-03-01T21:40:16.531Z,101243.20
2023-03-01T21:43:03.505Z,101240.90
2023-03-01T21:45:50.697Z,101238.73
2023-03-01T21:48:39.944Z,101234.29
2023-03-01T21:51:27.903Z,101232.71
2023-03-01T21:54:19.675Z,101234.56
2023-03-01T21:57:09.532Z,101237.54
2023-03-01T21:59:58.875Z,101235.84
2023-03-01T22:02:46.978Z,101237.20
2023-03-01T22:05:34.598Z,101233.83
2023-03-01T22:08:21.355Z,101232.96
2023-03-01T22:11:08.401Z,101230.78
2023-03-01T22:13:56.382Z,101228.90
2023-03-01T22:16:45.347Z,101226.99
2023-03-01T22:19:32.575Z,101223.41
2023-03-01T22:23:11.680Z,101224.59
2023-03-01T22:25:59.333Z,101220.77
2023-03-01T22:28:48.321Z,101223.08
2023-03-01T22:31:35.531Z,101223.09
2023-03-01T22:34:23.509Z,101228.02
2023-03-01T22:37:11.573Z,101224.85
2023-03-01T22:39:58.794Z,101224.42
2023-03-01T22:42:45.219Z,101220.74
2023-03-01T22:45:33.296Z,101226.42
2023-03-01T22:48:19.813Z,101229.82
2023-03-01T22:51:07.081Z,101226.68
2023-03-01T22:53:55.167Z,101220.98
2023-03-01T22:56:43.280Z,101219.88
2023-03-01T22:59:30.079Z,101229.98
2023-03-01T23:02:16.726Z,101227.93
2023-03-01T23:05:04.742Z,101225.61
2023-03-01T23:07:51.249Z,101229.64
2023-03-01T23:10:40.928Z,101228.59
2023-03-01T23:13:27.763Z,101226.84
2023-03-01T23:16:16.018Z,101236.17
2023-03-01T23:19:04.733Z,101234.30
2023-03-01T23:21:54.246Z,101231.11
2023-03-01T23:24:40.904Z,101227.91
2023-03-01T23:27:31.778Z,101227.43
2023-03-01T23:30:18.624Z,101224.15
2023-03-01T23:33:07.509Z,101221.55
2023-03-01T23:35:54.929Z,101219.58
2023-03-01T23:38:42.372Z,101220.00
2023-03-01T23:41:31.386Z,101217.75
2023-03-01T23:44:20.721Z,101218.98
2023-03-01T23:47:07.433Z,101219.98
2023-03-01T23:49:57.414Z,101219.89
2023-03-01T23:52:44.154Z,101221.12
2023-03-01T23:55:31.047Z,101221.95
2023-03-01T23:58:17.921Z,101220.95
